TimeEST,TemperatureF,Dew PointF,Humidity,Sea Level PressureIn,VisibilityMPH,Wind Direction,Wind SpeedMPH,Gust SpeedMPH,PrecipitationIn,Events,Conditions,WindDirDegrees,DateUTC
12:54 AM,5.0,3.0,92,30.25,3.0,Calm,Calm,-,N/A,,Clear,0,2013-01-03 05:54:00
1:54 AM,7.0,3.9,87,30.25,4.0,Calm,Calm,-,N/A,,Clear,0,2013-01-03 06:54:00
2:54 AM,5.0,1.0,84,30.25,5.0,Calm,Calm,-,N/A,,Clear,0,2013-01-03 07:54:00
3:54 AM,5.0,-0.0,80,30.24,6.0,Calm,Calm,-,N/A,,Haze,0,2013-01-03 08:54:00
4:54 AM,1.9,-2.0,83,30.24,6.0,Calm,Calm,-,N/A,,Clear,0,2013-01-03 09:54:00
5:54 AM,1.9,-2.0,83,30.25,6.0,Calm,Calm,-,N/A,,Clear,0,2013-01-03 10:54:00
6:54 AM,1.9,-2.9,80,30.27,6.0,Calm,Calm,-,N/A,,Haze,0,2013-01-03 11:54:00
7:46 AM,1.4,-2.2,85,30.21,6.0,Calm,Calm,-,N/A,,Scattered Clouds,0,2013-01-03 12:46:00
7:54 AM,1.0,-4.0,79,30.27,5.0,Calm,Calm,-,N/A,,Haze,0,2013-01-03 12:54:00
8:54 AM,5.0,1.9,87,30.27,5.0,Calm,Calm,-,N/A,,Partly Cloudy,0,2013-01-03 13:54:00
9:54 AM,12.9,10.0,88,30.26,4.0,Calm,Calm,-,N/A,,Clear,0,2013-01-03 14:54:00
10:54 AM,19.9,14.0,78,30.26,9.0,South,3.5,-,N/A,,Clear,190,2013-01-03 15:54:00
11:54 AM,26.1,12.9,58,30.23,10.0,WSW,8.1,-,N/A,,Clear,240,2013-01-03 16:54:00
12:54 PM,28.0,14.0,56,30.22,10.0,SW,10.4,-,N/A,,Clear,230,2013-01-03 17:54:00
1:54 PM,28.9,14.0,54,30.21,10.0,WSW,11.5,-,N/A,,Clear,240,2013-01-03 18:54:00
2:54 PM,30.9,15.1,52,30.21,10.0,SW,9.2,-,N/A,,Mostly Cloudy,230,2013-01-03 19:54:00
3:54 PM,30.9,16.0,54,30.23,10.0,WSW,12.7,-,N/A,,Scattered Clouds,250,2013-01-03 20:54:00
4:54 PM,28.9,16.0,58,30.25,10.0,SW,6.9,-,N/A,,Mostly Cloudy,230,2013-01-03 21:54:00
5:54 PM,30.0,19.0,64,30.26,10.0,SW,6.9,-,N/A,,Overcast,220,2013-01-03 22:54:00
6:54 PM,28.9,19.9,69,30.27,10.0,WSW,11.5,-,N/A,,Overcast,240,2013-01-03 23:54:00
7:54 PM,30.0,19.9,66,30.28,10.0,West,9.2,-,N/A,,Overcast,260,2013-01-04 00:54:00
8:50 PM,30.2,21.2,69,30.24,10.0,WSW,10.4,-,N/A,,Overcast,250,2013-01-04 01:50:00
8:54 PM,30.0,21.0,69,30.29,10.0,West,9.2,-,N/A,,Overcast,270,2013-01-04 01:54:00
9:54 PM,30.0,19.9,66,30.29,10.0,West,10.4,18.4,N/A,,Overcast,270,2013-01-04 02:54:00
10:54 PM,30.0,19.9,66,30.30,10.0,West,12.7,-,N/A,,Overcast,270,2013-01-04 03:54:00
11:54 PM,30.0,19.9,66,30.28,10.0,West,9.2,-,N/A,,Overcast,270,2013-01-04 04:54:00